Abraham, UT

7:27 AM MST on January 26, 2015 (GMT -0700)
APRSWXNET Oak City UT US | Change Station
CLOSE
Current Station
Personal Weather Station
Location: Oak City, UT
Elevation: 5137 ft
Nearby Weather Stations

Elev 5137 ft 39.37 °N, 112.33 °W | Updated 26 minutes ago

Partly Cloudy
Partly Cloudy
30 °F
Feels Like 30 °F
N
1
Wind Variable Wind from SE
Gusts 2.0 mph

Today
High -- | Low -- °F
--% Chance of Precip.
Yesterday
High -- | Low -- °F
Precip. -- in
7:43 AM 5:44 PM
Waxing Crescent, 43% visible
Pressure 30.36 in
Visibility 10.0 miles
Clouds Clear
Windchill 30 °F
Dew Point 26 °F
Humidity 86%
Rainfall 0.00 in
Snow Depth Not available.
UV 0 out of 12
Pollen .10 out of 12
Air Quality Not available.
Flu Activity Not available.
METAR KMLF 261352Z AUTO 32005KT 10SM CLR M03/M04 A3036

More Conditions Fewer Conditions

Pressure 30.36 in
Visibility 10.0 miles
Clouds Clear
Windchill 30 °F
Dew Point 26 °F
Humidity 86%
Rainfall 0.00 in
Snow Depth Not available.
UV 0 out of 12
Pollen .10 out of 12
Air Quality Not available.
Flu Activity Not available.
METAR KMLF 261352Z AUTO 32005KT 10SM CLR M03/M04 A3036

More Conditions Fewer Conditions

10-Day Weather Forecast

Almanac

Astronomy

Jan. 26, 2015 Rise Set
Actual Time
Civil Twilight
Nautical Twilight
Astronomical Twilight
Moon
Length of Visible Light
Length of Day
Tomorrow will be .
, % of the Moon is Illuminated

Today's Extremes

State Highs State Lows

Community

WunderPhotos

Upload Photos

1,790,219 photos uploaded!

WunderBlogs® & News

Nearby

Air Quality

  Air Quality AQ Index Pollutant
Not available.

Snow Depth

Station Depth Elevation

Earthquake Activity

City Distance Mag. Time & Date
Minimum magnitude displayed is 2.5.

Coastal Water Temperatures

Place Temperature

Nearby Weather Stations